sensor_id;sensor_type;location;lat;lon;timestamp;P1;P2;P0
50735;PMS5003;36702;50.892;20.648;2023-12-29T00:10:16;28;27;18
50735;PMS5003;36702;50.892;20.648;2023-12-29T00:30:13;28;27;18
50735;PMS5003;36702;50.892;20.648;2023-12-29T00:40:12;29;25;16
50735;PMS5003;36702;50.892;20.648;2023-12-29T00:50:12;29;25;16
50735;PMS5003;36702;50.892;20.648;2023-12-29T01:10:14;27;24;13
50735;PMS5003;36702;50.892;20.648;2023-12-29T01:30:06;27;24;13
50735;PMS5003;36702;50.892;20.648;2023-12-29T01:40:15;36;32;19
50735;PMS5003;36702;50.892;20.648;2023-12-29T01:50:14;36;32;19
50735;PMS5003;36702;50.892;20.648;2023-12-29T02:10:27;36;32;21
50735;PMS5003;36702;50.892;20.648;2023-12-29T02:20:06;36;32;21
50735;PMS5003;36702;50.892;20.648;2023-12-29T02:40:14;45;37;23
50735;PMS5003;36702;50.892;20.648;2023-12-29T02:50:09;45;37;23
50735;PMS5003;36702;50.892;20.648;2023-12-29T03:00:06;45;37;23
50735;PMS5003;36702;50.892;20.648;2023-12-29T03:10:04;19;19;12
50735;PMS5003;36702;50.892;20.648;2023-12-29T03:20:13;19;19;12
50735;PMS5003;36702;50.892;20.648;2023-12-29T03:30:03;19;19;12
50735;PMS5003;36702;50.892;20.648;2023-12-29T03:40:10;21;19;12
50735;PMS5003;36702;50.892;20.648;2023-12-29T03:50:04;21;19;12
50735;PMS5003;36702;50.892;20.648;2023-12-29T04:00:05;21;19;12
50735;PMS5003;36702;50.892;20.648;2023-12-29T04:10:08;26;20;13
50735;PMS5003;36702;50.892;20.648;2023-12-29T04:20:06;26;20;13
50735;PMS5003;36702;50.892;20.648;2023-12-29T04:30:14;26;20;13
50735;PMS5003;36702;50.892;20.648;2023-12-29T04:40:05;15;12;9
50735;PMS5003;36702;50.892;20.648;2023-12-29T04:50:08;15;12;9
50735;PMS5003;36702;50.892;20.648;2023-12-29T05:00:11;15;12;9
50735;PMS5003;36702;50.892;20.648;2023-12-29T05:10:02;19;15;10
50735;PMS5003;36702;50.892;20.648;2023-12-29T05:20:09;19;15;10
50735;PMS5003;36702;50.892;20.648;2023-12-29T05:30:17;19;15;10
50735;PMS5003;36702;50.892;20.648;2023-12-29T05:40:05;18;14;9
50735;PMS5003;36702;50.892;20.648;2023-12-29T05:50:12;18;14;9
50735;PMS5003;36702;50.892;20.648;2023-12-29T06:00:14;18;14;9
50735;PMS5003;36702;50.892;20.648;2023-12-29T06:10:12;12;12;9
50735;PMS5003;36702;50.892;20.648;2023-12-29T06:20:17;12;12;9
50735;PMS5003;36702;50.892;20.648;2023-12-29T06:30:07;12;12;9
50735;PMS5003;36702;50.892;20.648;2023-12-29T06:40:09;12;10;5
50735;PMS5003;36702;50.892;20.648;2023-12-29T06:50:15;12;10;5
50735;PMS5003;36702;50.892;20.648;2023-12-29T07:00:11;12;10;5
50735;PMS5003;36702;50.892;20.648;2023-12-29T07:10:14;12;11;7
50735;PMS5003;36702;50.892;20.648;2023-12-29T07:20:11;12;11;7
50735;PMS5003;36702;50.892;20.648;2023-12-29T07:30:02;12;11;7
50735;PMS5003;36702;50.892;20.648;2023-12-29T07:40:10;13;10;6
50735;PMS5003;36702;50.892;20.648;2023-12-29T07:50:12;13;10;6
50735;PMS5003;36702;50.892;20.648;2023-12-29T08:00:02;13;10;6
50735;PMS5003;36702;50.892;20.648;2023-12-29T08:10:17;8;8;5
50735;PMS5003;36702;50.892;20.648;2023-12-29T08:20:11;8;8;5
50735;PMS5003;36702;50.892;20.648;2023-12-29T08:30:12;8;8;5
50735;PMS5003;36702;50.892;20.648;2023-12-29T08:40:13;7;6;5
50735;PMS5003;36702;50.892;20.648;2023-12-29T08:50:13;7;6;5
50735;PMS5003;36702;50.892;20.648;2023-12-29T09:00:17;7;6;5
50735;PMS5003;36702;50.892;20.648;2023-12-29T09:10:18;6;5;3
50735;PMS5003;36702;50.892;20.648;2023-12-29T09:20:04;6;5;3
50735;PMS5003;36702;50.892;20.648;2023-12-29T09:30:02;6;5;3
50735;PMS5003;36702;50.892;20.648;2023-12-29T09:50:15;7;5;3
50735;PMS5003;36702;50.892;20.648;2023-12-29T10:00:16;7;5;3
50735;PMS5003;36702;50.892;20.648;2023-12-29T10:10:15;4;4;3
50735;PMS5003;36702;50.892;20.648;2023-12-29T10:20:42;4;4;3
50735;PMS5003;36702;50.892;20.648;2023-12-29T10:30:14;4;4;3
50735;PMS5003;36702;50.892;20.648;2023-12-29T10:40:07;4;3;2
50735;PMS5003;36702;50.892;20.648;2023-12-29T10:50:05;4;3;2
50735;PMS5003;36702;50.892;20.648;2023-12-29T11:00:02;4;3;2
50735;PMS5003;36702;50.892;20.648;2023-12-29T11:10:14;4;3;2
50735;PMS5003;36702;50.892;20.648;2023-12-29T11:20:08;4;3;2
50735;PMS5003;36702;50.892;20.648;2023-12-29T11:30:06;4;3;2
50735;PMS5003;36702;50.892;20.648;2023-12-29T11:50:02;2;2;1
50735;PMS5003;36702;50.892;20.648;2023-12-29T12:00:13;2;2;1
50735;PMS5003;36702;50.892;20.648;2023-12-29T12:10:32;5;3;1
50735;PMS5003;36702;50.892;20.648;2023-12-29T12:20:12;5;3;1
50735;PMS5003;36702;50.892;20.648;2023-12-29T12:30:07;5;3;1
50735;PMS5003;36702;50.892;20.648;2023-12-29T12:40:24;5;2;1
50735;PMS5003;36702;50.892;20.648;2023-12-29T12:50:10;5;2;1
50735;PMS5003;36702;50.892;20.648;2023-12-29T13:00:10;5;2;1
50735;PMS5003;36702;50.892;20.648;2023-12-29T13:10:05;3;3;3
50735;PMS5003;36702;50.892;20.648;2023-12-29T13:20:10;3;3;3
50735;PMS5003;36702;50.892;20.648;2023-12-29T13:30:15;3;3;3
50735;PMS5003;36702;50.892;20.648;2023-12-29T13:40:39;3;3;2
50735;PMS5003;36702;50.892;20.648;2023-12-29T13:50:13;3;3;2
50735;PMS5003;36702;50.892;20.648;2023-12-29T14:00:22;3;3;2
50735;PMS5003;36702;50.892;20.648;2023-12-29T14:10:06;6;5;3
50735;PMS5003;36702;50.892;20.648;2023-12-29T14:20:07;6;5;3
50735;PMS5003;36702;50.892;20.648;2023-12-29T14:30:31;6;5;3
50735;PMS5003;36702;50.892;20.648;2023-12-29T14:40:18;5;5;3
50735;PMS5003;36702;50.892;20.648;2023-12-29T14:50:14;5;5;3
50735;PMS5003;36702;50.892;20.648;2023-12-29T15:00:23;5;5;3
50735;PMS5003;36702;50.892;20.648;2023-12-29T15:10:10;4;3;2
50735;PMS5003;36702;50.892;20.648;2023-12-29T23:40:05;3;3;2
50735;PMS5003;36702;50.892;20.648;2023-12-29T23:50:08;3;3;2
